»·PEaware :: N441PW CYVR-KSEA

N441PW :: CYVR-KSEA

FLIGHT INFORMATION

Flight Status: Arrived
Operator: Privately registered:
United States
More flights under this callsign
Pilot: Stacy K. (11621)
Aircraft: CESSNA 404 TITAN
(C404)
More flights by this aircraft type
Origin: CYVR Vancouver Intl
Canada
Destination: KSEA Seattle-Tacoma Intl
United States
More flights between these airports :: More routes between these airports
Route: +YVR NUW PAE SEA
File this flight plan on PilotEdge
Remarks:
Altitude:
(Current/Filed)
5,000ft
Speed:
(Current/Filed)
180kts
Departed: 11-Apr-18 07:30 PM
Arrived: 11-Apr-18 08:09 PM
Distance/Time
Traveled:
111nm/0:39
Distance/Time
To Go:
Arrived

Flight Plot

Page will automatically refresh every two minutes.

Flight plan parsing failed; only flown route is shown


Map Options




Map Legend


Flown Route
Filed Route
Departure Airport
Arrival Airport
Navaid (VOR, NDB)
Fix

Horizontal Profiles

Position Reports

Time Latitude Longitude Heading Altitude Ground
Speed
11-Apr-18 19:16 49.182670 -123.175480 100 18ft 0kts
11-Apr-18 19:17 49.182670 -123.175480 100 18ft 0kts
11-Apr-18 19:18 49.182670 -123.175480 100 18ft 0kts
11-Apr-18 19:19 49.182670 -123.175480 100 18ft 0kts
11-Apr-18 19:20 49.182670 -123.175480 100 18ft 0kts
11-Apr-18 19:21 49.182670 -123.175480 100 18ft 0kts
11-Apr-18 19:22 49.182670 -123.175480 100 18ft 0kts
11-Apr-18 19:23 49.182670 -123.175480 100 18ft 0kts
11-Apr-18 19:24 49.182670 -123.175480 100 18ft 0kts
11-Apr-18 19:25 49.182969 -123.175471 320 18ft 11kts
11-Apr-18 19:26 49.184908 -123.180114 279 18ft 19kts
11-Apr-18 19:27 49.186150 -123.187421 323 18ft 7kts
11-Apr-18 19:28 49.187164 -123.188228 2 18ft 3kts
11-Apr-18 19:29 49.186124 -123.172170 101 90ft 104kts
11-Apr-18 19:30 49.161251 -123.152477 198 1066ft 150kts
11-Apr-18 19:31 49.118777 -123.161096 171 2093ft 159kts
11-Apr-18 19:32 49.075348 -123.146911 159 3096ft 160kts
11-Apr-18 19:33 49.034175 -123.120545 156 4099ft 160kts
11-Apr-18 19:34 48.993060 -123.092665 155 4951ft 168kts
11-Apr-18 19:35 48.946855 -123.061351 156 5002ft 189kts
11-Apr-18 19:36 48.898681 -123.028779 156 5000ft 190kts
11-Apr-18 19:37 48.850386 -122.996009 156 5003ft 189kts
11-Apr-18 19:38 48.802246 -122.963364 156 4999ft 189kts
11-Apr-18 19:39 48.754260 -122.930831 156 5000ft 188kts
11-Apr-18 19:40 48.706376 -122.898469 156 4995ft 188kts
11-Apr-18 19:41 48.658549 -122.866249 156 5002ft 187kts
11-Apr-18 19:42 48.610870 -122.834241 156 4996ft 187kts
11-Apr-18 19:43 48.571270 -122.807664 156 5002ft 187kts
11-Apr-18 19:44 48.528501 -122.778980 156 5004ft 186kts
11-Apr-18 19:45 48.473634 -122.742223 156 5026ft 185kts
11-Apr-18 19:46 48.425963 -122.710327 156 5041ft 189kts
11-Apr-18 19:47 48.377835 -122.677954 156 5050ft 189kts
11-Apr-18 19:48 48.338631 -122.647978 151 5054ft 189kts
11-Apr-18 19:49 48.293130 -122.608480 150 5051ft 189kts
11-Apr-18 19:50 48.247638 -122.568246 150 5030ft 190kts
11-Apr-18 19:51 48.201966 -122.527980 149 5034ft 191kts
11-Apr-18 19:52 48.156239 -122.487345 149 5022ft 190kts
11-Apr-18 19:53 48.110485 -122.446868 150 5020ft 190kts
11-Apr-18 19:54 48.069454 -122.399668 108 5018ft 193kts
11-Apr-18 19:55 48.041807 -122.333082 136 5016ft 190kts
11-Apr-18 19:56 48.000439 -122.287845 178 5033ft 186kts
11-Apr-18 19:57 47.948569 -122.297352 187 5008ft 189kts
11-Apr-18 19:58 47.897658 -122.308633 187 5007ft 188kts
11-Apr-18 19:59 47.850097 -122.317173 177 5009ft 189kts
11-Apr-18 20:00 47.798709 -122.306574 173 5008ft 189kts
11-Apr-18 20:01 47.744501 -122.304972 183 4403ft 202kts
11-Apr-18 20:02 47.691883 -122.309644 182 4026ft 174kts
11-Apr-18 20:03 47.642770 -122.309845 179 4019ft 183kts
11-Apr-18 20:04 47.590877 -122.309531 181 2975ft 174kts
11-Apr-18 20:05 47.546002 -122.310393 181 2026ft 151kts
11-Apr-18 20:06 47.505067 -122.310713 180 1272ft 144kts
11-Apr-18 20:07 47.468091 -122.310909 181 584ft 104kts
11-Apr-18 20:08 47.449289 -122.311203 181 437ft 39kts
11-Apr-18 20:09 47.446645 -122.312346 263 437ft 0kts
11-Apr-18 20:10 47.441437 -122.314781 167 437ft 43kts
11-Apr-18 20:11 47.438552 -122.314912 264 437ft 11kts
11-Apr-18 20:12 47.438213 -122.315297 189 437ft 0kts
11-Apr-18 20:13 47.438213 -122.315297 189 437ft 0kts
11-Apr-18 20:14 47.438213 -122.315297 189 437ft 0kts
11-Apr-18 20:15 47.438213 -122.315297 189 437ft 0kts
11-Apr-18 20:16 47.438213 -122.315297 189 437ft 0kts

Navigation Log

Ident Type
Flight plan parsing failed, navigation log unavailable